Bigler, PA (16825)

6:52 AM EDT on August 25, 2016 (GMT -0400)
Woodland | | Change Station

Elev 1765 ft 41.01 °N, 78.35 °W | Updated 2 minutes ago

Light Rain
Light Rain
68.5 °F
Feels Like 68.5 °F
N
1.1
Wind Variable Wind from NE

Today
High -- | Low -- °F
--% Chance of Precip.
Yesterday
High -- | Low -- °F
Precip. -- in
Pressure 30.07 in
Visibility 10.0 miles
Clouds Mostly Cloudy 2700 ft
Dew Point 64 °F
Humidity 86%
Rainfall 0.00 in
Snow Depth Not available.
6:33 AM 7:56 PM
Waning Gibbous, 47% visible
SPECI KFIG 251050Z AUTO 00000KT 10SM -RA BKN027 19/18 A3007 RMK AO2 RAB0956 P0000
Pressure 30.07 in
Visibility 10.0 miles
Clouds Mostly Cloudy 2700 ft
Dew Point 64 °F
Humidity 86%
Rainfall 0.00 in
Snow Depth Not available.
6:33 AM 7:56 PM
Waning Gibbous, 47% visible
SPECI KFIG 251050Z AUTO 00000KT 10SM -RA BKN027 19/18 A3007 RMK AO2 RAB0956 P0000

10-Day Weather Forecast

Almanac

Astronomy

Aug. 25, 2016 Rise Set
Actual Time
Civil Twilight
Nautical Twilight
Astronomical Twilight
Moon
Length of Visible Light
Length of Day
Tomorrow will be .
, % of the Moon is Illuminated

Today's Extremes

State Highs State Lows

Community

WunderPhotos

Upload Photos

1,934,821 photos uploaded!

WunderBlog® & News

Nearby

Air Quality

  Air Quality AQ Index Pollutant
Not available.

Snow Depth

Station Depth Elevation

Earthquake Activity

City Distance Mag. Time & Date
Minimum magnitude displayed is 2.5.

Coastal Water Temperatures

Place Temperature

Stations

Nearby Weather Stations

Station Location Temp. Windchill Dew Point Humidity Wind Precip. Elev Updated Type
                   

Watches & Warnings

There are currently no watches in effect.